sensor_id;sensor_type;location;lat;lon;timestamp;P1;durP1;ratioP1;P2;durP2;ratioP2
65924;SDS011;66010;52.084;5.412;2022-12-16T00:02:20;16.33;;;8.35;;
65924;SDS011;66010;52.084;5.412;2022-12-16T00:04:46;16.45;;;8.40;;
65924;SDS011;66010;52.084;5.412;2022-12-16T00:07:13;14.23;;;8.48;;
65924;SDS011;66010;52.084;5.412;2022-12-16T00:09:39;14.70;;;8.25;;
65924;SDS011;66010;52.084;5.412;2022-12-16T00:12:05;13.40;;;8.07;;
65924;SDS011;66010;52.084;5.412;2022-12-16T00:16:59;12.68;;;7.60;;
65924;SDS011;66010;52.084;5.412;2022-12-16T00:19:25;13.07;;;8.18;;
65924;SDS011;66010;52.084;5.412;2022-12-16T00:21:52;12.32;;;8.13;;
65924;SDS011;66010;52.084;5.412;2022-12-16T00:24:19;12.98;;;7.88;;
65924;SDS011;66010;52.084;5.412;2022-12-16T00:26:46;14.05;;;7.72;;
65924;SDS011;66010;52.084;5.412;2022-12-16T00:29:12;15.02;;;9.27;;
65924;SDS011;66010;52.084;5.412;2022-12-16T00:31:39;12.90;;;7.97;;
65924;SDS011;66010;52.084;5.412;2022-12-16T00:34:05;14.63;;;8.85;;
65924;SDS011;66010;52.084;5.412;2022-12-16T00:36:32;16.33;;;8.13;;
65924;SDS011;66010;52.084;5.412;2022-12-16T00:38:58;14.73;;;8.15;;
65924;SDS011;66010;52.084;5.412;2022-12-16T00:41:25;12.13;;;7.50;;
65924;SDS011;66010;52.084;5.412;2022-12-16T00:43:51;15.52;;;7.88;;
65924;SDS011;66010;52.084;5.412;2022-12-16T00:46:18;12.40;;;7.55;;
65924;SDS011;66010;52.084;5.412;2022-12-16T00:48:45;22.25;;;7.90;;
65924;SDS011;66010;52.084;5.412;2022-12-16T00:51:11;15.48;;;7.18;;
65924;SDS011;66010;52.084;5.412;2022-12-16T00:53:37;14.23;;;7.05;;
65924;SDS011;66010;52.084;5.412;2022-12-16T00:56:05;15.02;;;7.35;;
65924;SDS011;66010;52.084;5.412;2022-12-16T01:00:58;13.73;;;6.80;;
65924;SDS011;66010;52.084;5.412;2022-12-16T01:03:24;14.80;;;6.90;;
65924;SDS011;66010;52.084;5.412;2022-12-16T01:05:51;14.75;;;6.95;;
65924;SDS011;66010;52.084;5.412;2022-12-16T01:08:17;12.73;;;6.78;;
65924;SDS011;66010;52.084;5.412;2022-12-16T01:10:53;12.60;;;6.93;;
65924;SDS011;66010;52.084;5.412;2022-12-16T01:13:21;14.93;;;7.53;;
65924;SDS011;66010;52.084;5.412;2022-12-16T01:15:48;13.40;;;7.03;;
65924;SDS011;66010;52.084;5.412;2022-12-16T01:18:15;15.15;;;7.50;;
65924;SDS011;66010;52.084;5.412;2022-12-16T01:20:42;14.68;;;7.25;;
65924;SDS011;66010;52.084;5.412;2022-12-16T01:23:08;13.52;;;7.18;;
65924;SDS011;66010;52.084;5.412;2022-12-16T01:25:35;13.10;;;7.47;;
65924;SDS011;66010;52.084;5.412;2022-12-16T01:28:01;12.10;;;6.90;;
65924;SDS011;66010;52.084;5.412;2022-12-16T01:30:27;13.90;;;7.18;;
65924;SDS011;66010;52.084;5.412;2022-12-16T01:32:54;13.77;;;7.05;;
65924;SDS011;66010;52.084;5.412;2022-12-16T01:35:20;13.63;;;7.13;;
65924;SDS011;66010;52.084;5.412;2022-12-16T01:38:07;15.13;;;7.55;;
65924;SDS011;66010;52.084;5.412;2022-12-16T01:40:33;12.25;;;6.93;;
65924;SDS011;66010;52.084;5.412;2022-12-16T01:42:59;12.63;;;7.15;;
65924;SDS011;66010;52.084;5.412;2022-12-16T01:47:52;13.07;;;7.22;;
65924;SDS011;66010;52.084;5.412;2022-12-16T01:50:20;12.68;;;7.35;;
65924;SDS011;66010;52.084;5.412;2022-12-16T01:52:48;14.00;;;6.95;;
65924;SDS011;66010;52.084;5.412;2022-12-16T01:55:18;13.98;;;7.45;;
65924;SDS011;66010;52.084;5.412;2022-12-16T01:57:49;14.82;;;7.38;;
65924;SDS011;66010;52.084;5.412;2022-12-16T02:00:20;14.77;;;7.65;;
65924;SDS011;66010;52.084;5.412;2022-12-16T02:02:47;16.38;;;7.80;;
65924;SDS011;66010;52.084;5.412;2022-12-16T02:05:14;16.05;;;7.70;;
65924;SDS011;66010;52.084;5.412;2022-12-16T02:07:51;13.63;;;7.60;;
65924;SDS011;66010;52.084;5.412;2022-12-16T02:10:20;14.15;;;7.47;;
65924;SDS011;66010;52.084;5.412;2022-12-16T02:12:55;13.40;;;7.20;;
65924;SDS011;66010;52.084;5.412;2022-12-16T02:17:55;14.82;;;7.82;;
65924;SDS011;66010;52.084;5.412;2022-12-16T02:25:43;13.77;;;7.40;;
65924;SDS011;66010;52.084;5.412;2022-12-16T02:28:23;13.60;;;7.28;;
65924;SDS011;66010;52.084;5.412;2022-12-16T02:36:09;13.40;;;7.50;;
65924;SDS011;66010;52.084;5.412;2022-12-16T02:38:54;15.90;;;7.72;;
65924;SDS011;66010;52.084;5.412;2022-12-16T02:44:07;14.60;;;7.60;;
65924;SDS011;66010;52.084;5.412;2022-12-16T02:46:39;13.13;;;7.22;;
65924;SDS011;66010;52.084;5.412;2022-12-16T02:49:06;14.02;;;7.68;;
65924;SDS011;66010;52.084;5.412;2022-12-16T02:51:33;14.80;;;8.07;;
65924;SDS011;66010;52.084;5.412;2022-12-16T02:54:00;13.75;;;7.60;;
65924;SDS011;66010;52.084;5.412;2022-12-16T03:06:53;16.08;;;7.75;;
65924;SDS011;66010;52.084;5.412;2022-12-16T03:09:21;14.02;;;8.27;;
65924;SDS011;66010;52.084;5.412;2022-12-16T03:11:49;13.13;;;7.22;;
65924;SDS011;66010;52.084;5.412;2022-12-16T03:14:16;14.18;;;7.72;;
65924;SDS011;66010;52.084;5.412;2022-12-16T03:16:44;13.82;;;7.32;;
65924;SDS011;66010;52.084;5.412;2022-12-16T03:19:12;13.80;;;7.60;;
65924;SDS011;66010;52.084;5.412;2022-12-16T03:22:40;13.30;;;7.30;;
65924;SDS011;66010;52.084;5.412;2022-12-16T03:24:34;14.27;;;8.07;;
65924;SDS011;66010;52.084;5.412;2022-12-16T03:32:21;13.45;;;7.50;;
65924;SDS011;66010;52.084;5.412;2022-12-16T03:34:51;15.45;;;8.23;;
65924;SDS011;66010;52.084;5.412;2022-12-16T03:37:18;12.98;;;7.65;;
65924;SDS011;66010;52.084;5.412;2022-12-16T03:39:47;13.85;;;7.85;;
65924;SDS011;66010;52.084;5.412;2022-12-16T03:42:14;12.48;;;7.05;;
65924;SDS011;66010;52.084;5.412;2022-12-16T03:44:42;13.73;;;7.18;;
65924;SDS011;66010;52.084;5.412;2022-12-16T03:47:08;13.45;;;7.18;;
65924;SDS011;66010;52.084;5.412;2022-12-16T03:49:36;13.65;;;7.38;;
65924;SDS011;66010;52.084;5.412;2022-12-16T03:52:02;14.70;;;7.68;;
65924;SDS011;66010;52.084;5.412;2022-12-16T03:54:28;14.48;;;7.72;;
65924;SDS011;66010;52.084;5.412;2022-12-16T03:56:55;13.68;;;7.25;;
65924;SDS011;66010;52.084;5.412;2022-12-16T03:59:21;12.88;;;6.90;;
65924;SDS011;66010;52.084;5.412;2022-12-16T04:01:48;13.63;;;7.00;;
65924;SDS011;66010;52.084;5.412;2022-12-16T04:04:15;13.55;;;7.15;;
65924;SDS011;66010;52.084;5.412;2022-12-16T04:06:42;14.77;;;7.97;;
65924;SDS011;66010;52.084;5.412;2022-12-16T04:09:08;13.00;;;7.88;;
65924;SDS011;66010;52.084;5.412;2022-12-16T04:11:35;13.90;;;7.38;;
65924;SDS011;66010;52.084;5.412;2022-12-16T04:14:20;12.65;;;6.68;;
65924;SDS011;66010;52.084;5.412;2022-12-16T04:17:05;12.82;;;6.90;;
65924;SDS011;66010;52.084;5.412;2022-12-16T04:19:49;13.25;;;6.57;;
65924;SDS011;66010;52.084;5.412;2022-12-16T04:22:36;13.25;;;7.22;;
65924;SDS011;66010;52.084;5.412;2022-12-16T04:25:25;13.25;;;6.72;;
65924;SDS011;66010;52.084;5.412;2022-12-16T04:27:53;14.18;;;6.57;;
65924;SDS011;66010;52.084;5.412;2022-12-16T04:30:20;12.52;;;6.38;;
65924;SDS011;66010;52.084;5.412;2022-12-16T04:32:51;12.23;;;6.43;;
65924;SDS011;66010;52.084;5.412;2022-12-16T04:35:36;12.65;;;6.35;;
65924;SDS011;66010;52.084;5.412;2022-12-16T04:38:21;11.90;;;6.50;;
65924;SDS011;66010;52.084;5.412;2022-12-16T04:41:06;13.02;;;6.20;;
65924;SDS011;66010;52.084;5.412;2022-12-16T04:43:51;12.20;;;6.53;;
65924;SDS011;66010;52.084;5.412;2022-12-16T04:46:36;12.48;;;6.57;;
65924;SDS011;66010;52.084;5.412;2022-12-16T04:49:21;12.25;;;6.50;;
65924;SDS011;66010;52.084;5.412;2022-12-16T04:52:06;11.70;;;6.07;;
65924;SDS011;66010;52.084;5.412;2022-12-16T04:54:51;12.45;;;6.40;;
65924;SDS011;66010;52.084;5.412;2022-12-16T04:57:36;11.68;;;5.95;;
65924;SDS011;66010;52.084;5.412;2022-12-16T05:00:21;11.45;;;5.85;;
65924;SDS011;66010;52.084;5.412;2022-12-16T05:03:06;11.10;;;6.20;;
65924;SDS011;66010;52.084;5.412;2022-12-16T05:05:51;10.70;;;5.80;;
65924;SDS011;66010;52.084;5.412;2022-12-16T05:08:36;11.90;;;5.78;;
65924;SDS011;66010;52.084;5.412;2022-12-16T05:11:21;11.70;;;6.03;;
65924;SDS011;66010;52.084;5.412;2022-12-16T05:14:06;11.02;;;6.50;;
65924;SDS011;66010;52.084;5.412;2022-12-16T05:16:51;11.30;;;5.93;;
65924;SDS011;66010;52.084;5.412;2022-12-16T05:19:36;10.48;;;5.28;;
65924;SDS011;66010;52.084;5.412;2022-12-16T05:22:21;10.70;;;5.18;;
65924;SDS011;66010;52.084;5.412;2022-12-16T05:25:07;11.38;;;5.35;;
65924;SDS011;66010;52.084;5.412;2022-12-16T05:27:52;12.35;;;5.53;;
65924;SDS011;66010;52.084;5.412;2022-12-16T05:30:37;11.05;;;5.82;;
65924;SDS011;66010;52.084;5.412;2022-12-16T05:33:22;12.20;;;6.40;;
65924;SDS011;66010;52.084;5.412;2022-12-16T05:36:07;12.20;;;6.00;;
65924;SDS011;66010;52.084;5.412;2022-12-16T05:38:53;11.00;;;5.53;;
65924;SDS011;66010;52.084;5.412;2022-12-16T05:41:38;12.20;;;5.20;;
65924;SDS011;66010;52.084;5.412;2022-12-16T05:44:23;10.88;;;5.22;;
65924;SDS011;66010;52.084;5.412;2022-12-16T05:47:08;10.88;;;5.90;;
65924;SDS011;66010;52.084;5.412;2022-12-16T05:49:54;9.75;;;5.13;;
65924;SDS011;66010;52.084;5.412;2022-12-16T05:52:39;13.68;;;5.97;;
65924;SDS011;66010;52.084;5.412;2022-12-16T05:55:25;10.30;;;4.70;;
65924;SDS011;66010;52.084;5.412;2022-12-16T05:58:09;11.30;;;5.28;;
65924;SDS011;66010;52.084;5.412;2022-12-16T06:00:54;11.13;;;5.13;;
65924;SDS011;66010;52.084;5.412;2022-12-16T06:03:39;10.55;;;4.90;;
65924;SDS011;66010;52.084;5.412;2022-12-16T06:06:24;9.73;;;4.97;;
65924;SDS011;66010;52.084;5.412;2022-12-16T06:09:09;9.95;;;4.78;;
65924;SDS011;66010;52.084;5.412;2022-12-16T06:11:54;11.43;;;5.32;;
65924;SDS011;66010;52.084;5.412;2022-12-16T06:14:39;9.32;;;4.30;;
65924;SDS011;66010;52.084;5.412;2022-12-16T06:17:41;9.07;;;4.80;;
65924;SDS011;66010;52.084;5.412;2022-12-16T06:20:26;10.48;;;5.05;;
65924;SDS011;66010;52.084;5.412;2022-12-16T06:23:11;10.55;;;4.80;;
65924;SDS011;66010;52.084;5.412;2022-12-16T06:25:56;9.43;;;4.53;;
65924;SDS011;66010;52.084;5.412;2022-12-16T06:28:41;9.23;;;4.38;;
65924;SDS011;66010;52.084;5.412;2022-12-16T06:31:26;10.75;;;4.90;;
65924;SDS011;66010;52.084;5.412;2022-12-16T06:34:11;9.23;;;4.32;;
65924;SDS011;66010;52.084;5.412;2022-12-16T06:36:56;14.10;;;4.90;;
65924;SDS011;66010;52.084;5.412;2022-12-16T06:39:41;8.65;;;4.18;;
65924;SDS011;66010;52.084;5.412;2022-12-16T06:42:27;10.20;;;4.88;;
65924;SDS011;66010;52.084;5.412;2022-12-16T06:45:12;9.52;;;4.43;;
65924;SDS011;66010;52.084;5.412;2022-12-16T06:48:00;8.60;;;3.92;;
65924;SDS011;66010;52.084;5.412;2022-12-16T06:50:45;8.77;;;4.05;;
65924;SDS011;66010;52.084;5.412;2022-12-16T06:53:30;8.85;;;4.18;;
65924;SDS011;66010;52.084;5.412;2022-12-16T06:56:15;9.15;;;4.60;;
65924;SDS011;66010;52.084;5.412;2022-12-16T06:59:00;8.40;;;3.95;;
65924;SDS011;66010;52.084;5.412;2022-12-16T07:01:45;9.55;;;4.07;;
65924;SDS011;66010;52.084;5.412;2022-12-16T07:04:30;9.30;;;4.80;;
65924;SDS011;66010;52.084;5.412;2022-12-16T07:07:15;8.43;;;3.63;;
65924;SDS011;66010;52.084;5.412;2022-12-16T07:10:00;9.43;;;4.07;;
65924;SDS011;66010;52.084;5.412;2022-12-16T07:12:45;8.68;;;3.97;;
65924;SDS011;66010;52.084;5.412;2022-12-16T07:15:30;8.20;;;3.63;;
65924;SDS011;66010;52.084;5.412;2022-12-16T07:18:15;9.23;;;4.53;;
65924;SDS011;66010;52.084;5.412;2022-12-16T07:21:00;7.78;;;3.65;;
65924;SDS011;66010;52.084;5.412;2022-12-16T07:23:45;8.80;;;3.97;;
65924;SDS011;66010;52.084;5.412;2022-12-16T07:26:30;8.52;;;3.95;;
65924;SDS011;66010;52.084;5.412;2022-12-16T07:29:15;8.75;;;3.90;;
65924;SDS011;66010;52.084;5.412;2022-12-16T07:32:00;8.30;;;3.88;;
65924;SDS011;66010;52.084;5.412;2022-12-16T07:34:45;8.18;;;3.60;;
65924;SDS011;66010;52.084;5.412;2022-12-16T07:37:30;8.95;;;3.85;;
65924;SDS011;66010;52.084;5.412;2022-12-16T07:40:15;8.93;;;3.70;;
65924;SDS011;66010;52.084;5.412;2022-12-16T07:43:00;8.45;;;3.75;;
65924;SDS011;66010;52.084;5.412;2022-12-16T07:45:45;9.98;;;3.72;;
65924;SDS011;66010;52.084;5.412;2022-12-16T07:48:30;7.80;;;3.40;;
65924;SDS011;66010;52.084;5.412;2022-12-16T07:51:16;8.05;;;3.70;;
65924;SDS011;66010;52.084;5.412;2022-12-16T07:54:01;8.50;;;3.72;;
65924;SDS011;66010;52.084;5.412;2022-12-16T07:56:46;8.35;;;3.72;;
65924;SDS011;66010;52.084;5.412;2022-12-16T07:59:31;8.18;;;4.03;;
65924;SDS011;66010;52.084;5.412;2022-12-16T08:02:16;7.93;;;3.50;;
65924;SDS011;66010;52.084;5.412;2022-12-16T08:05:01;8.70;;;3.30;;
65924;SDS011;66010;52.084;5.412;2022-12-16T08:07:46;7.35;;;3.38;;
65924;SDS011;66010;52.084;5.412;2022-12-16T08:10:31;9.32;;;3.28;;
65924;SDS011;66010;52.084;5.412;2022-12-16T08:13:16;7.22;;;3.50;;
65924;SDS011;66010;52.084;5.412;2022-12-16T08:16:01;7.90;;;3.80;;
65924;SDS011;66010;52.084;5.412;2022-12-16T08:18:46;9.38;;;3.55;;
65924;SDS011;66010;52.084;5.412;2022-12-16T08:21:36;8.07;;;3.53;;
65924;SDS011;66010;52.084;5.412;2022-12-16T08:24:21;10.20;;;3.33;;
65924;SDS011;66010;52.084;5.412;2022-12-16T08:27:06;7.38;;;3.30;;
65924;SDS011;66010;52.084;5.412;2022-12-16T08:29:51;8.45;;;3.28;;
65924;SDS011;66010;52.084;5.412;2022-12-16T08:32:36;8.38;;;3.55;;
65924;SDS011;66010;52.084;5.412;2022-12-16T08:35:27;9.15;;;3.10;;
65924;SDS011;66010;52.084;5.412;2022-12-16T08:38:12;9.82;;;3.30;;
65924;SDS011;66010;52.084;5.412;2022-12-16T08:40:57;10.55;;;3.15;;
65924;SDS011;66010;52.084;5.412;2022-12-16T08:43:42;9.50;;;3.22;;
65924;SDS011;66010;52.084;5.412;2022-12-16T08:46:27;14.15;;;3.20;;
65924;SDS011;66010;52.084;5.412;2022-12-16T08:49:12;7.70;;;3.00;;
65924;SDS011;66010;52.084;5.412;2022-12-16T08:51:57;6.72;;;2.72;;
65924;SDS011;66010;52.084;5.412;2022-12-16T08:54:42;9.20;;;3.17;;
65924;SDS011;66010;52.084;5.412;2022-12-16T08:57:27;7.75;;;2.65;;
65924;SDS011;66010;52.084;5.412;2022-12-16T09:00:12;7.38;;;2.72;;
65924;SDS011;66010;52.084;5.412;2022-12-16T09:02:57;6.88;;;2.63;;
65924;SDS011;66010;52.084;5.412;2022-12-16T09:05:43;7.80;;;3.20;;
65924;SDS011;66010;52.084;5.412;2022-12-16T09:08:29;6.65;;;2.55;;
65924;SDS011;66010;52.084;5.412;2022-12-16T09:11:14;6.65;;;2.53;;
65924;SDS011;66010;52.084;5.412;2022-12-16T09:13:59;6.20;;;2.70;;
65924;SDS011;66010;52.084;5.412;2022-12-16T09:16:44;5.97;;;2.60;;
65924;SDS011;66010;52.084;5.412;2022-12-16T09:19:29;6.90;;;2.90;;
65924;SDS011;66010;52.084;5.412;2022-12-16T09:22:14;5.18;;;2.10;;
65924;SDS011;66010;52.084;5.412;2022-12-16T09:24:59;5.13;;;2.15;;
65924;SDS011;66010;52.084;5.412;2022-12-16T09:27:48;5.07;;;2.15;;
65924;SDS011;66010;52.084;5.412;2022-12-16T09:30:34;6.10;;;2.20;;
65924;SDS011;66010;52.084;5.412;2022-12-16T09:33:20;5.07;;;2.10;;
65924;SDS011;66010;52.084;5.412;2022-12-16T09:36:05;7.07;;;1.95;;
65924;SDS011;66010;52.084;5.412;2022-12-16T09:38:50;5.57;;;1.83;;
65924;SDS011;66010;52.084;5.412;2022-12-16T09:41:42;4.85;;;1.80;;
65924;SDS011;66010;52.084;5.412;2022-12-16T09:44:34;5.95;;;2.13;;
65924;SDS011;66010;52.084;5.412;2022-12-16T09:47:24;4.88;;;2.00;;
65924;SDS011;66010;52.084;5.412;2022-12-16T09:50:26;4.40;;;1.70;;
65924;SDS011;66010;52.084;5.412;2022-12-16T09:53:12;6.70;;;2.40;;
65924;SDS011;66010;52.084;5.412;2022-12-16T09:55:59;8.30;;;2.60;;
65924;SDS011;66010;52.084;5.412;2022-12-16T09:58:50;6.75;;;2.45;;
65924;SDS011;66010;52.084;5.412;2022-12-16T10:01:37;9.50;;;2.55;;
65924;SDS011;66010;52.084;5.412;2022-12-16T10:04:23;5.90;;;2.22;;
65924;SDS011;66010;52.084;5.412;2022-12-16T10:07:12;6.05;;;2.10;;
65924;SDS011;66010;52.084;5.412;2022-12-16T10:10:02;4.65;;;1.75;;
65924;SDS011;66010;52.084;5.412;2022-12-16T10:12:55;5.47;;;1.88;;
65924;SDS011;66010;52.084;5.412;2022-12-16T10:15:50;4.97;;;2.03;;
65924;SDS011;66010;52.084;5.412;2022-12-16T10:21:26;5.07;;;2.10;;
65924;SDS011;66010;52.084;5.412;2022-12-16T10:24:22;6.20;;;1.80;;
65924;SDS011;66010;52.084;5.412;2022-12-16T10:27:13;4.57;;;1.90;;
65924;SDS011;66010;52.084;5.412;2022-12-16T10:30:00;4.88;;;2.03;;
65924;SDS011;66010;52.084;5.412;2022-12-16T10:32:46;7.50;;;1.80;;
65924;SDS011;66010;52.084;5.412;2022-12-16T10:35:40;4.18;;;1.70;;
65924;SDS011;66010;52.084;5.412;2022-12-16T10:44:03;4.00;;;1.55;;
65924;SDS011;66010;52.084;5.412;2022-12-16T10:46:49;4.13;;;1.60;;
65924;SDS011;66010;52.084;5.412;2022-12-16T10:49:34;6.15;;;1.50;;
65924;SDS011;66010;52.084;5.412;2022-12-16T10:52:21;4.22;;;1.67;;
65924;SDS011;66010;52.084;5.412;2022-12-16T10:55:20;6.70;;;1.60;;
65924;SDS011;66010;52.084;5.412;2022-12-16T10:58:25;7.78;;;1.80;;
65924;SDS011;66010;52.084;5.412;2022-12-16T11:01:20;7.90;;;1.50;;
65924;SDS011;66010;52.084;5.412;2022-12-16T11:07:21;8.25;;;2.28;;
65924;SDS011;66010;52.084;5.412;2022-12-16T11:10:26;6.93;;;1.65;;
65924;SDS011;66010;52.084;5.412;2022-12-16T11:13:18;5.10;;;1.70;;
65924;SDS011;66010;52.084;5.412;2022-12-16T11:16:05;6.18;;;1.90;;
65924;SDS011;66010;52.084;5.412;2022-12-16T11:18:54;9.35;;;2.60;;
65924;SDS011;66010;52.084;5.412;2022-12-16T11:21:39;9.15;;;3.20;;
65924;SDS011;66010;52.084;5.412;2022-12-16T11:24:23;9.00;;;3.40;;
65924;SDS011;66010;52.084;5.412;2022-12-16T11:30:04;8.82;;;3.33;;
65924;SDS011;66010;52.084;5.412;2022-12-16T11:32:59;8.75;;;3.20;;
65924;SDS011;66010;52.084;5.412;2022-12-16T11:35:45;7.80;;;2.80;;
65924;SDS011;66010;52.084;5.412;2022-12-16T11:38:44;6.80;;;2.58;;
65924;SDS011;66010;52.084;5.412;2022-12-16T11:41:40;7.63;;;2.88;;
65924;SDS011;66010;52.084;5.412;2022-12-16T11:47:30;5.85;;;2.08;;
65924;SDS011;66010;52.084;5.412;2022-12-16T11:50:18;6.10;;;2.45;;
65924;SDS011;66010;52.084;5.412;2022-12-16T11:53:05;6.50;;;2.53;;
65924;SDS011;66010;52.084;5.412;2022-12-16T11:55:55;5.85;;;2.22;;
65924;SDS011;66010;52.084;5.412;2022-12-16T11:58:45;7.50;;;2.67;;
65924;SDS011;66010;52.084;5.412;2022-12-16T12:04:39;7.32;;;2.40;;
65924;SDS011;66010;52.084;5.412;2022-12-16T12:13:10;7.22;;;2.45;;
65924;SDS011;66010;52.084;5.412;2022-12-16T12:16:08;6.32;;;2.47;;
65924;SDS011;66010;52.084;5.412;2022-12-16T12:19:00;6.65;;;2.63;;
65924;SDS011;66010;52.084;5.412;2022-12-16T12:21:48;6.20;;;2.33;;
65924;SDS011;66010;52.084;5.412;2022-12-16T12:30:12;7.82;;;2.67;;
65924;SDS011;66010;52.084;5.412;2022-12-16T12:33:18;6.25;;;2.50;;
65924;SDS011;66010;52.084;5.412;2022-12-16T12:36:11;6.20;;;2.30;;
65924;SDS011;66010;52.084;5.412;2022-12-16T12:39:18;7.25;;;2.53;;
65924;SDS011;66010;52.084;5.412;2022-12-16T12:45:37;5.72;;;2.47;;
65924;SDS011;66010;52.084;5.412;2022-12-16T12:48:33;7.00;;;2.40;;
65924;SDS011;66010;52.084;5.412;2022-12-16T12:56:59;5.70;;;2.40;;
65924;SDS011;66010;52.084;5.412;2022-12-16T13:00:00;5.95;;;2.20;;
65924;SDS011;66010;52.084;5.412;2022-12-16T13:05:32;5.72;;;2.20;;
65924;SDS011;66010;52.084;5.412;2022-12-16T13:11:22;5.03;;;2.55;;
65924;SDS011;66010;52.084;5.412;2022-12-16T13:17:11;6.03;;;2.40;;
65924;SDS011;66010;52.084;5.412;2022-12-16T13:19:56;6.13;;;2.30;;
65924;SDS011;66010;52.084;5.412;2022-12-16T13:22:42;7.72;;;2.35;;
65924;SDS011;66010;52.084;5.412;2022-12-16T13:25:38;6.75;;;2.30;;
65924;SDS011;66010;52.084;5.412;2022-12-16T13:28:31;6.50;;;2.30;;
65924;SDS011;66010;52.084;5.412;2022-12-16T13:31:17;5.57;;;2.30;;
65924;SDS011;66010;52.084;5.412;2022-12-16T13:37:01;5.75;;;2.25;;
65924;SDS011;66010;52.084;5.412;2022-12-16T13:39:58;5.70;;;2.40;;
65924;SDS011;66010;52.084;5.412;2022-12-16T13:45:31;7.25;;;2.40;;
65924;SDS011;66010;52.084;5.412;2022-12-16T13:54:24;5.20;;;2.00;;
65924;SDS011;66010;52.084;5.412;2022-12-16T13:59:57;5.80;;;2.40;;
65924;SDS011;66010;52.084;5.412;2022-12-16T14:02:43;5.88;;;2.30;;
65924;SDS011;66010;52.084;5.412;2022-12-16T14:05:29;6.05;;;2.35;;
65924;SDS011;66010;52.084;5.412;2022-12-16T14:08:15;6.15;;;2.70;;
65924;SDS011;66010;52.084;5.412;2022-12-16T14:11:02;5.57;;;2.33;;
65924;SDS011;66010;52.084;5.412;2022-12-16T14:13:59;5.65;;;2.35;;
65924;SDS011;66010;52.084;5.412;2022-12-16T14:16:57;6.07;;;2.55;;
65924;SDS011;66010;52.084;5.412;2022-12-16T14:26:01;5.65;;;2.35;;
65924;SDS011;66010;52.084;5.412;2022-12-16T14:28:47;7.57;;;2.70;;
65924;SDS011;66010;52.084;5.412;2022-12-16T14:31:36;5.85;;;2.40;;
65924;SDS011;66010;52.084;5.412;2022-12-16T14:40:24;5.55;;;2.50;;
65924;SDS011;66010;52.084;5.412;2022-12-16T14:43:12;7.10;;;2.58;;
65924;SDS011;66010;52.084;5.412;2022-12-16T14:45:58;7.68;;;3.00;;
65924;SDS011;66010;52.084;5.412;2022-12-16T14:48:46;6.25;;;2.53;;
65924;SDS011;66010;52.084;5.412;2022-12-16T14:51:32;7.32;;;2.80;;
65924;SDS011;66010;52.084;5.412;2022-12-16T14:57:03;7.88;;;3.28;;
65924;SDS011;66010;52.084;5.412;2022-12-16T14:59:58;6.80;;;2.70;;
65924;SDS011;66010;52.084;5.412;2022-12-16T15:02:44;6.20;;;2.78;;
65924;SDS011;66010;52.084;5.412;2022-12-16T15:05:31;6.78;;;2.70;;
65924;SDS011;66010;52.084;5.412;2022-12-16T15:08:18;6.88;;;2.75;;
65924;SDS011;66010;52.084;5.412;2022-12-16T15:11:04;6.60;;;2.63;;
65924;SDS011;66010;52.084;5.412;2022-12-16T15:13:53;7.25;;;3.10;;
65924;SDS011;66010;52.084;5.412;2022-12-16T15:16:38;6.80;;;3.00;;
65924;SDS011;66010;52.084;5.412;2022-12-16T15:19:23;5.93;;;2.70;;
65924;SDS011;66010;52.084;5.412;2022-12-16T15:22:12;6.55;;;2.65;;
65924;SDS011;66010;52.084;5.412;2022-12-16T15:24:58;6.60;;;2.85;;
65924;SDS011;66010;52.084;5.412;2022-12-16T15:27:42;5.43;;;2.53;;
65924;SDS011;66010;52.084;5.412;2022-12-16T15:33:39;6.30;;;2.47;;
65924;SDS011;66010;52.084;5.412;2022-12-16T15:36:31;6.55;;;2.70;;
65924;SDS011;66010;52.084;5.412;2022-12-16T15:42:03;6.28;;;2.67;;
65924;SDS011;66010;52.084;5.412;2022-12-16T15:44:49;6.15;;;2.50;;
65924;SDS011;66010;52.084;5.412;2022-12-16T15:47:35;6.75;;;2.67;;
65924;SDS011;66010;52.084;5.412;2022-12-16T15:50:23;6.35;;;3.05;;
65924;SDS011;66010;52.084;5.412;2022-12-16T15:53:16;7.15;;;3.08;;
65924;SDS011;66010;52.084;5.412;2022-12-16T15:56:17;6.05;;;3.17;;
65924;SDS011;66010;52.084;5.412;2022-12-16T16:02:09;7.53;;;2.80;;
65924;SDS011;66010;52.084;5.412;2022-12-16T16:04:58;6.78;;;3.10;;
65924;SDS011;66010;52.084;5.412;2022-12-16T16:07:43;7.60;;;3.30;;
65924;SDS011;66010;52.084;5.412;2022-12-16T16:10:30;7.18;;;3.00;;
65924;SDS011;66010;52.084;5.412;2022-12-16T16:13:15;7.30;;;2.90;;
65924;SDS011;66010;52.084;5.412;2022-12-16T16:16:00;6.53;;;3.03;;
65924;SDS011;66010;52.084;5.412;2022-12-16T16:18:47;6.38;;;2.85;;
65924;SDS011;66010;52.084;5.412;2022-12-16T16:21:32;8.18;;;2.90;;
65924;SDS011;66010;52.084;5.412;2022-12-16T16:24:17;6.43;;;2.90;;
65924;SDS011;66010;52.084;5.412;2022-12-16T16:27:02;7.70;;;2.97;;
65924;SDS011;66010;52.084;5.412;2022-12-16T16:29:47;6.25;;;2.80;;
65924;SDS011;66010;52.084;5.412;2022-12-16T16:32:32;6.50;;;2.80;;
65924;SDS011;66010;52.084;5.412;2022-12-16T16:35:17;7.10;;;2.50;;
65924;SDS011;66010;52.084;5.412;2022-12-16T16:38:03;7.80;;;3.05;;
65924;SDS011;66010;52.084;5.412;2022-12-16T16:40:47;7.53;;;3.30;;
65924;SDS011;66010;52.084;5.412;2022-12-16T16:43:33;7.82;;;3.45;;
65924;SDS011;66010;52.084;5.412;2022-12-16T16:49:18;9.40;;;4.20;;
65924;SDS011;66010;52.084;5.412;2022-12-16T16:52:03;8.65;;;4.00;;
65924;SDS011;66010;52.084;5.412;2022-12-16T16:54:48;9.60;;;4.43;;
65924;SDS011;66010;52.084;5.412;2022-12-16T16:57:33;9.88;;;5.10;;
65924;SDS011;66010;52.084;5.412;2022-12-16T17:00:21;10.15;;;4.88;;
65924;SDS011;66010;52.084;5.412;2022-12-16T17:03:07;11.25;;;5.88;;
65924;SDS011;66010;52.084;5.412;2022-12-16T17:05:52;10.15;;;5.43;;
65924;SDS011;66010;52.084;5.412;2022-12-16T17:08:37;12.32;;;5.80;;
65924;SDS011;66010;52.084;5.412;2022-12-16T17:11:22;13.35;;;6.78;;
65924;SDS011;66010;52.084;5.412;2022-12-16T17:14:09;14.52;;;7.80;;
65924;SDS011;66010;52.084;5.412;2022-12-16T17:16:55;16.30;;;8.82;;
65924;SDS011;66010;52.084;5.412;2022-12-16T17:19:40;17.00;;;9.20;;
65924;SDS011;66010;52.084;5.412;2022-12-16T17:22:25;17.92;;;9.77;;
65924;SDS011;66010;52.084;5.412;2022-12-16T17:25:10;16.35;;;9.35;;
65924;SDS011;66010;52.084;5.412;2022-12-16T17:27:55;16.75;;;9.35;;
65924;SDS011;66010;52.084;5.412;2022-12-16T17:30:40;15.88;;;9.50;;
65924;SDS011;66010;52.084;5.412;2022-12-16T17:33:25;15.35;;;8.40;;
65924;SDS011;66010;52.084;5.412;2022-12-16T17:36:11;14.32;;;8.00;;
65924;SDS011;66010;52.084;5.412;2022-12-16T17:38:57;14.82;;;7.65;;
65924;SDS011;66010;52.084;5.412;2022-12-16T17:41:42;14.35;;;8.10;;
65924;SDS011;66010;52.084;5.412;2022-12-16T17:44:27;14.02;;;7.50;;
65924;SDS011;66010;52.084;5.412;2022-12-16T17:47:12;12.63;;;6.68;;
65924;SDS011;66010;52.084;5.412;2022-12-16T17:49:57;12.23;;;6.55;;
65924;SDS011;66010;52.084;5.412;2022-12-16T17:52:42;13.43;;;7.03;;
65924;SDS011;66010;52.084;5.412;2022-12-16T17:55:27;13.27;;;6.97;;
65924;SDS011;66010;52.084;5.412;2022-12-16T17:58:12;11.80;;;6.88;;
65924;SDS011;66010;52.084;5.412;2022-12-16T18:01:05;12.50;;;6.53;;
65924;SDS011;66010;52.084;5.412;2022-12-16T18:03:51;11.98;;;6.32;;
65924;SDS011;66010;52.084;5.412;2022-12-16T18:06:36;12.00;;;6.38;;
65924;SDS011;66010;52.084;5.412;2022-12-16T18:09:21;12.18;;;6.55;;
65924;SDS011;66010;52.084;5.412;2022-12-16T18:12:07;11.95;;;6.35;;
65924;SDS011;66010;52.084;5.412;2022-12-16T18:14:52;11.40;;;6.32;;
65924;SDS011;66010;52.084;5.412;2022-12-16T18:17:37;12.07;;;6.63;;
65924;SDS011;66010;52.084;5.412;2022-12-16T18:20:22;12.20;;;6.00;;
65924;SDS011;66010;52.084;5.412;2022-12-16T18:23:15;15.57;;;5.93;;